Time;durP1;ratioP1;P1;durP2;ratioP2;P2;SDS_P1;SDS_P2;PMS_P1;PMS_P2;Temp;Humidity;BMP_temperature;BMP_pressure;BME280_temperature;BME280_humidity;BME280_pressure;Samples;Min_cycle;Max_cycle;Signal;HPM_P1;HPM_P2
2022/05/04 00:00:15;;;;;;;7.33;2.60;;;5.90;99.90;;;;;;5021510;28;20191;-80
2022/05/04 00:02:42;;;;;;;9.47;2.50;;;5.80;99.90;;;;;;5017419;28;20211;-80
2022/05/04 00:05:09;;;;;;;7.60;2.63;;;5.80;99.90;;;;;;5006412;28;20519;-80
2022/05/04 00:07:38;;;;;;;6.03;2.40;;;5.80;99.90;;;;;;5022183;28;20215;-80
2022/05/04 00:10:07;;;;;;;7.43;3.30;;;5.70;99.90;;;;;;5003156;28;20595;-80
2022/05/04 00:12:35;;;;;;;8.37;2.50;;;5.70;99.90;;;;;;5006550;28;20208;-80
2022/05/04 00:15:02;;;;;;;5.40;3.00;;;5.70;99.90;;;;;;5018355;28;20254;-80
2022/05/04 00:17:28;;;;;;;7.73;3.03;;;5.70;99.90;;;;;;5021758;28;20203;-80
2022/05/04 00:19:56;;;;;;;7.57;2.70;;;5.60;99.90;;;;;;5008912;28;20204;-79
2022/05/04 00:22:23;;;;;;;4.00;2.50;;;5.60;99.90;;;;;;5021289;28;20199;-80
2022/05/04 00:24:52;;;;;;;7.47;2.70;;;5.50;99.90;;;;;;5021020;28;20227;-79
2022/05/04 00:27:19;;;;;;;8.27;3.20;;;5.50;99.90;;;;;;5027117;28;20200;-79
2022/05/04 00:29:46;;;;;;;9.83;2.73;;;5.40;99.90;;;;;;5022216;28;20212;-79
2022/05/04 00:32:17;;;;;;;2.93;2.43;;;5.40;99.90;;;;;;5021463;28;20203;-79
2022/05/04 00:34:45;;;;;;;3.40;2.40;;;5.30;99.90;;;;;;5011244;28;20239;-79
2022/05/04 00:37:12;;;;;;;7.73;3.27;;;5.30;99.90;;;;;;5011914;28;20193;-79
2022/05/04 00:39:39;;;;;;;3.73;2.50;;;5.30;99.90;;;;;;5019208;28;20200;-79
2022/05/04 00:42:13;;;;;;;4.83;2.60;;;5.30;99.90;;;;;;5020936;28;20429;-79
2022/05/04 00:44:41;;;;;;;8.70;3.53;;;5.30;99.90;;;;;;5017650;28;20223;-80
2022/05/04 00:47:09;;;;;;;5.10;2.80;;;5.30;99.90;;;;;;5021254;28;20482;-80
2022/05/04 00:49:36;;;;;;;8.53;2.40;;;5.30;99.90;;;;;;5016038;28;20219;-79
2022/05/04 00:52:04;;;;;;;8.27;2.97;;;5.20;99.90;;;;;;5005467;28;20409;-79
2022/05/04 00:54:31;;;;;;;8.87;2.50;;;5.20;99.90;;;;;;5023040;28;20216;-79
2022/05/04 00:56:59;;;;;;;8.03;3.17;;;5.20;99.90;;;;;;5025156;28;20572;-79
2022/05/04 00:59:27;;;;;;;6.30;2.77;;;5.10;99.90;;;;;;5011318;28;20200;-79
2022/05/04 01:01:54;;;;;;;5.67;2.90;;;5.00;99.90;;;;;;5020604;28;20250;-79
2022/05/04 01:04:21;;;;;;;12.23;4.23;;;4.90;99.90;;;;;;5015348;28;20262;-79
2022/05/04 01:06:48;;;;;;;5.80;3.30;;;5.00;99.90;;;;;;5008016;28;20715;-80
2022/05/04 01:09:15;;;;;;;8.43;2.97;;;4.90;99.90;;;;;;5022259;28;20188;-80
2022/05/04 01:11:43;;;;;;;8.53;2.70;;;4.90;99.90;;;;;;5025558;28;20223;-79
2022/05/04 01:14:11;;;;;;;7.63;3.47;;;4.80;99.90;;;;;;5024132;28;20645;-79
2022/05/04 01:16:43;;;;;;;8.57;3.17;;;4.80;99.90;;;;;;5027390;28;20200;-79
2022/05/04 01:19:12;;;;;;;5.30;2.60;;;4.80;99.90;;;;;;4999534;28;20208;-79
2022/05/04 01:21:40;;;;;;;6.00;3.47;;;4.70;99.90;;;;;;5020255;28;20196;-79
2022/05/04 01:24:09;;;;;;;6.43;2.70;;;4.70;99.90;;;;;;5009374;28;20434;-79
2022/05/04 01:26:36;;;;;;;5.90;2.67;;;4.60;99.90;;;;;;5027570;28;20630;-79
2022/05/04 01:29:05;;;;;;;6.37;3.40;;;4.60;99.90;;;;;;5025841;28;20875;-80
2022/05/04 01:31:32;;;;;;;13.20;2.90;;;4.60;99.90;;;;;;5027214;28;20223;-79
2022/05/04 01:34:00;;;;;;;9.03;3.13;;;4.50;99.90;;;;;;4998662;28;20254;-79
2022/05/04 01:36:27;;;;;;;5.40;2.77;;;4.60;99.90;;;;;;5023046;28;20228;-79
2022/05/04 01:38:55;;;;;;;5.97;2.63;;;4.50;99.90;;;;;;5009008;28;20239;-79
2022/05/04 01:44:08;;;;;;;4.77;3.30;;;4.50;99.90;;;;;;5006035;28;20348;-79
2022/05/04 01:46:36;;;;;;;4.60;2.60;;;4.50;99.90;;;;;;5008836;28;20199;-79
2022/05/04 01:49:03;;;;;;;7.10;3.17;;;4.50;99.90;;;;;;5022541;28;20676;-79
2022/05/04 01:51:29;;;;;;;5.27;3.10;;;4.50;99.90;;;;;;5019470;28;20216;-79
2022/05/04 01:53:57;;;;;;;9.13;3.80;;;4.50;99.90;;;;;;4994103;28;20723;-79
2022/05/04 01:56:26;;;;;;;5.23;3.53;;;4.50;99.90;;;;;;4999302;28;20196;-79
2022/05/04 01:58:53;;;;;;;7.13;3.37;;;4.50;99.90;;;;;;5004919;28;20196;-78
2022/05/04 02:01:20;;;;;;;9.20;3.13;;;4.40;99.90;;;;;;5007715;28;20196;-79
2022/05/04 02:03:48;;;;;;;8.07;3.50;;;4.30;99.90;;;;;;5023732;28;20243;-79
2022/05/04 02:06:16;;;;;;;6.83;3.40;;;4.60;99.90;;;;;;5021364;28;20599;-79
2022/05/04 02:08:45;;;;;;;7.17;3.50;;;4.30;99.90;;;;;;5008214;28;20206;-79
2022/05/04 02:11:12;;;;;;;7.90;3.10;;;4.30;99.90;;;;;;5011227;28;20215;-79
2022/05/04 02:13:40;;;;;;;10.50;3.70;;;4.30;99.90;;;;;;5025210;28;20648;-79
2022/05/04 02:16:07;;;;;;;4.93;3.63;;;4.30;99.90;;;;;;5020368;28;20210;-79
2022/05/04 02:18:34;;;;;;;7.10;3.83;;;4.30;99.90;;;;;;4993487;28;20201;-79
2022/05/04 02:21:01;;;;;;;5.43;4.10;;;4.30;99.90;;;;;;5020778;28;20318;-79
2022/05/04 02:23:28;;;;;;;6.90;3.77;;;4.30;99.90;;;;;;5001821;28;20224;-80
2022/05/04 02:25:55;;;;;;;8.50;3.57;;;4.20;99.90;;;;;;4990166;28;20212;-80
2022/05/04 02:28:22;;;;;;;5.77;3.63;;;4.20;99.90;;;;;;5007902;28;20204;-80
2022/05/04 02:30:50;;;;;;;5.03;3.40;;;4.20;99.90;;;;;;5023861;28;20215;-80
2022/05/04 02:33:18;;;;;;;6.30;3.80;;;4.20;99.90;;;;;;5022959;28;20697;-80
2022/05/04 02:38:28;;;;;;;10.80;3.70;;;4.10;99.90;;;;;;5009800;28;20591;-79
2022/05/04 02:40:56;;;;;;;6.53;3.33;;;4.10;99.90;;;;;;4990551;28;20196;-79
2022/05/04 02:43:26;;;;;;;10.20;3.50;;;4.00;99.90;;;;;;5019206;28;20578;-80
2022/05/04 02:45:54;;;;;;;9.03;3.30;;;4.00;99.90;;;;;;5022518;28;20601;-79
2022/05/04 02:48:21;;;;;;;4.67;3.03;;;3.90;99.90;;;;;;5025336;28;20687;-80
2022/05/04 02:50:48;;;;;;;4.87;3.40;;;3.90;99.90;;;;;;5024064;28;20223;-80
2022/05/04 02:53:16;;;;;;;11.43;3.83;;;3.80;99.90;;;;;;5014762;28;20513;-79
2022/05/04 02:55:43;;;;;;;7.53;3.40;;;3.80;99.90;;;;;;5022319;28;20200;-79
2022/05/04 02:58:10;;;;;;;4.67;3.73;;;3.80;99.90;;;;;;4991483;28;20204;-79
2022/05/04 03:00:37;;;;;;;7.57;4.13;;;3.80;99.90;;;;;;5019066;28;20210;-79
2022/05/04 03:03:05;;;;;;;8.00;3.37;;;3.80;99.90;;;;;;5021888;28;20493;-79
2022/05/04 03:05:32;;;;;;;5.43;3.53;;;3.70;99.90;;;;;;5024445;28;20203;-80
2022/05/04 03:07:59;;;;;;;9.53;4.10;;;3.70;99.90;;;;;;5019368;28;20270;-79
2022/05/04 03:10:26;;;;;;;7.57;4.23;;;3.70;99.90;;;;;;5017915;28;20203;-80
2022/05/04 03:12:53;;;;;;;7.43;3.70;;;3.70;99.90;;;;;;4989691;28;20566;-79
2022/05/04 03:15:20;;;;;;;8.20;4.10;;;3.70;99.90;;;;;;5016405;28;20218;-79
2022/05/04 03:17:47;;;;;;;12.83;4.20;;;3.70;99.90;;;;;;5022738;28;20656;-79
2022/05/04 03:20:15;;;;;;;7.73;4.27;;;3.70;99.90;;;;;;5022545;28;20699;-80
2022/05/04 03:22:42;;;;;;;7.63;3.77;;;3.70;99.90;;;;;;5024538;28;20200;-79
2022/05/04 03:25:10;;;;;;;6.43;3.67;;;3.70;99.90;;;;;;5014581;28;20224;-79
2022/05/04 03:27:36;;;;;;;6.20;4.03;;;3.70;99.90;;;;;;5024060;28;20212;-79
2022/05/04 03:30:05;;;;;;;6.77;4.23;;;3.70;99.90;;;;;;4982743;28;20437;-79
2022/05/04 03:32:32;;;;;;;9.83;4.53;;;3.70;99.90;;;;;;4994026;28;20219;-79
2022/05/04 03:34:59;;;;;;;8.37;4.03;;;3.70;99.90;;;;;;5022487;28;20216;-79
2022/05/04 03:37:27;;;;;;;8.53;4.07;;;3.70;99.90;;;;;;4998072;28;20207;-79
2022/05/04 03:39:54;;;;;;;9.90;4.83;;;3.70;99.90;;;;;;5023831;28;20200;-79
2022/05/04 03:42:21;;;;;;;8.00;4.00;;;3.70;99.90;;;;;;5014486;28;20701;-79
2022/05/04 03:44:48;;;;;;;9.83;4.33;;;3.70;99.90;;;;;;5009219;28;20298;-79
2022/05/04 03:47:15;;;;;;;7.57;3.77;;;3.70;99.90;;;;;;5003349;28;20215;-79
2022/05/04 03:49:42;;;;;;;8.87;4.83;;;3.80;99.90;;;;;;5021587;28;20200;-79
2022/05/04 03:52:10;;;;;;;8.17;4.67;;;3.90;99.90;;;;;;5024642;28;20223;-79
2022/05/04 03:54:38;;;;;;;7.40;4.27;;;3.90;99.90;;;;;;5014907;28;20566;-79
2022/05/04 03:57:06;;;;;;;8.00;4.13;;;4.00;99.90;;;;;;5020521;28;20208;-79
2022/05/04 03:59:33;;;;;;;8.93;5.10;;;4.00;99.90;;;;;;5018433;28;20398;-80
2022/05/04 04:02:00;;;;;;;9.63;4.80;;;4.10;99.90;;;;;;4989996;28;20218;-79
2022/05/04 04:04:26;;;;;;;9.03;4.20;;;4.20;99.90;;;;;;5018456;28;20218;-80
2022/05/04 04:06:53;;;;;;;9.43;4.60;;;4.20;99.90;;;;;;5017722;28;20220;-79
2022/05/04 04:09:21;;;;;;;9.30;4.93;;;4.30;99.90;;;;;;5014842;28;20199;-79
2022/05/04 04:11:49;;;;;;;9.93;4.77;;;4.30;99.90;;;;;;5006643;28;20314;-79
2022/05/04 04:14:16;;;;;;;8.33;4.57;;;4.30;99.90;;;;;;5019781;28;20510;-79
2022/05/04 04:16:43;;;;;;;8.40;4.90;;;4.30;99.90;;;;;;4990033;28;20750;-79
2022/05/04 04:19:10;;;;;;;10.93;5.00;;;4.40;99.90;;;;;;5019605;28;20562;-79
2022/05/04 04:21:50;;;;;;;10.07;5.03;;;4.40;99.90;;;;;;5024254;28;20571;-79
2022/05/04 04:24:17;;;;;;;11.77;5.67;;;4.50;99.90;;;;;;5017618;28;20909;-80
2022/05/04 04:26:44;;;;;;;10.67;4.70;;;4.50;99.90;;;;;;5015425;28;20298;-80
2022/05/04 04:29:12;;;;;;;9.43;4.73;;;4.60;99.90;;;;;;5021121;28;20218;-80
2022/05/04 04:31:39;;;;;;;12.73;5.13;;;4.60;99.90;;;;;;5008551;28;20207;-79
2022/05/04 04:34:07;;;;;;;10.80;4.93;;;4.70;99.90;;;;;;5020173;28;20242;-79
2022/05/04 04:36:35;;;;;;;7.37;5.27;;;4.80;99.90;;;;;;5023320;28;20699;-79
2022/05/04 04:39:01;;;;;;;7.00;5.03;;;4.80;99.90;;;;;;5014833;28;20235;-79
2022/05/04 04:41:29;;;;;;;8.93;4.70;;;4.80;99.90;;;;;;5019236;28;20188;-79
2022/05/04 04:43:58;;;;;;;8.80;4.93;;;4.90;99.90;;;;;;5013719;28;20891;-79
2022/05/04 04:46:26;;;;;;;9.47;5.13;;;4.90;99.90;;;;;;5021125;28;20219;-79
2022/05/04 04:48:53;;;;;;;9.43;5.27;;;4.90;99.90;;;;;;5010425;28;20656;-79
2022/05/04 04:51:20;;;;;;;12.40;5.57;;;5.00;99.90;;;;;;5036584;28;20704;-79
2022/05/04 04:53:47;;;;;;;9.13;4.90;;;5.00;99.90;;;;;;5025480;28;20235;-79
2022/05/04 04:56:14;;;;;;;9.50;4.80;;;5.10;99.90;;;;;;5009747;28;20904;-79
2022/05/04 04:58:41;;;;;;;12.83;4.90;;;5.10;99.90;;;;;;4998048;28;20207;-79
2022/05/04 05:01:08;;;;;;;9.77;5.37;;;5.20;99.90;;;;;;5005688;28;20414;-78
2022/05/04 05:03:36;;;;;;;9.77;4.90;;;5.20;99.90;;;;;;4993508;28;20251;-78
2022/05/04 05:06:03;;;;;;;10.97;5.10;;;5.20;99.90;;;;;;5023994;28;20269;-78
2022/05/04 05:08:29;;;;;;;8.83;4.97;;;5.30;99.90;;;;;;5026797;28;20274;-78
2022/05/04 05:10:56;;;;;;;14.27;5.67;;;5.30;99.90;;;;;;4998430;28;20258;-79
2022/05/04 05:13:23;;;;;;;11.03;5.23;;;5.30;99.90;;;;;;5020200;28;20251;-79
2022/05/04 05:16:07;;;;;;;5.93;4.67;;;5.40;99.90;;;;;;5017135;28;20204;-78
2022/05/04 05:18:35;;;;;;;13.53;4.93;;;5.50;99.90;;;;;;5014997;28;20207;-78
2022/05/04 05:21:03;;;;;;;9.87;5.03;;;5.60;99.90;;;;;;5022505;28;20209;-79
2022/05/04 05:23:30;;;;;;;11.30;4.80;;;5.70;99.90;;;;;;5021887;28;20223;-79
2022/05/04 05:25:56;;;;;;;6.03;4.43;;;5.80;99.90;;;;;;5023306;28;20218;-81
2022/05/04 05:28:23;;;;;;;8.50;4.53;;;5.90;99.90;;;;;;5005511;28;20189;-80
2022/05/04 05:30:49;;;;;;;13.80;5.03;;;6.00;99.90;;;;;;5008575;28;20692;-81
2022/05/04 05:33:16;;;;;;;7.87;5.20;;;6.10;99.90;;;;;;5021510;28;20345;-79
2022/05/04 05:35:44;;;;;;;7.90;4.47;;;6.30;99.90;;;;;;4996931;28;20858;-80
2022/05/04 05:38:11;;;;;;;8.87;3.97;;;6.40;99.90;;;;;;5025470;28;20310;-79
2022/05/04 05:40:38;;;;;;;15.73;5.83;;;6.50;99.90;;;;;;5025502;28;20224;-79
2022/05/04 05:43:05;;;;;;;11.03;4.83;;;6.50;99.90;;;;;;5006862;28;20306;-80
2022/05/04 05:45:32;;;;;;;7.23;3.50;;;6.60;99.90;;;;;;5017156;28;20708;-80
2022/05/04 05:47:59;;;;;;;13.37;4.53;;;6.70;99.90;;;;;;5024816;28;20208;-81
2022/05/04 05:50:26;;;;;;;12.73;5.03;;;6.80;99.90;;;;;;5014184;28;20214;-80
2022/05/04 05:52:55;;;;;;;6.43;4.37;;;6.90;99.90;;;;;;5025172;28;20222;-81
2022/05/04 05:55:21;;;;;;;7.40;4.13;;;7.00;99.90;;;;;;5010559;28;20266;-80
2022/05/04 05:57:48;;;;;;;7.27;3.47;;;7.10;99.90;;;;;;5028690;28;20199;-81
2022/05/04 06:00:16;;;;;;;11.83;4.07;;;7.20;99.90;;;;;;5021753;28;20211;-81
2022/05/04 06:02:44;;;;;;;7.53;3.60;;;7.20;99.90;;;;;;5031415;28;20253;-81
2022/05/04 06:05:12;;;;;;;11.63;3.57;;;7.30;99.90;;;;;;5005343;28;21406;-80
2022/05/04 06:07:39;;;;;;;9.83;3.77;;;7.40;99.90;;;;;;5028075;28;20235;-80
2022/05/04 06:10:09;;;;;;;11.27;3.70;;;7.50;99.90;;;;;;5016994;28;20861;-81
2022/05/04 06:12:38;;;;;;;10.33;3.70;;;7.60;99.90;;;;;;5026446;28;20593;-80
2022/05/04 06:15:07;;;;;;;10.17;2.90;;;7.80;99.90;;;;;;5013337;28;20233;-80
2022/05/04 06:17:34;;;;;;;6.67;2.77;;;7.90;99.90;;;;;;5020627;28;20246;-79
2022/05/04 06:20:01;;;;;;;5.20;2.50;;;8.00;99.90;;;;;;5023502;28;20196;-81
2022/05/04 06:22:29;;;;;;;9.67;2.70;;;8.10;99.90;;;;;;5014337;28;20228;-79
2022/05/04 06:24:55;;;;;;;5.50;2.17;;;8.20;99.90;;;;;;5020074;28;20262;-81
2022/05/04 06:27:24;;;;;;;5.23;2.10;;;8.20;99.90;;;;;;5029839;28;20193;-80
2022/05/04 06:35:21;;;;;;;5.77;2.40;;;8.50;99.90;;;;;;5025770;28;20716;-79
2022/05/04 06:37:48;;;;;;;6.40;2.10;;;8.50;99.90;;;;;;5009766;28;20316;-81
2022/05/04 06:40:15;;;;;;;4.40;1.50;;;8.70;99.90;;;;;;5021705;28;20227;-79
2022/05/04 06:42:44;;;;;;;5.13;1.27;;;8.70;99.90;;;;;;5026627;28;20633;-81
2022/05/04 06:45:12;;;;;;;5.43;1.10;;;8.80;99.90;;;;;;4999493;28;20865;-79
2022/05/04 06:47:38;;;;;;;5.67;1.70;;;8.80;99.90;;;;;;5018804;28;20254;-79
2022/05/04 06:50:06;;;;;;;5.20;1.20;;;8.90;99.90;;;;;;5023413;28;20257;-79
2022/05/04 06:52:33;;;;;;;4.60;1.10;;;8.90;99.90;;;;;;5013773;28;20223;-79
2022/05/04 06:55:00;;;;;;;3.47;1.03;;;9.10;99.90;;;;;;5016028;28;20951;-79
2022/05/04 06:57:27;;;;;;;3.83;1.40;;;9.10;99.90;;;;;;5019048;28;20207;-79
2022/05/04 06:59:55;;;;;;;3.57;1.30;;;9.10;99.90;;;;;;5016794;28;20420;-80
2022/05/04 07:02:22;;;;;;;6.50;1.57;;;9.10;99.90;;;;;;4996753;28;20197;-80
2022/05/04 07:04:49;;;;;;;7.07;1.10;;;9.10;99.90;;;;;;5014162;28;20228;-80
2022/05/04 07:07:16;;;;;;;4.40;1.50;;;9.00;99.90;;;;;;5005890;28;20216;-79
2022/05/04 07:09:43;;;;;;;3.87;0.80;;;9.00;99.90;;;;;;5030411;28;20287;-80
2022/05/04 07:12:10;;;;;;;10.00;1.77;;;9.10;99.90;;;;;;5015186;28;20216;-80
2022/05/04 07:14:37;;;;;;;6.43;1.10;;;9.10;99.90;;;;;;5028656;28;20212;-80
2022/05/04 07:17:06;;;;;;;10.87;1.57;;;9.10;99.90;;;;;;5016333;28;20426;-80
2022/05/04 07:19:33;;;;;;;3.30;1.10;;;9.20;99.90;;;;;;5024772;28;20198;-80
2022/05/04 07:22:00;;;;;;;4.33;1.07;;;9.20;99.90;;;;;;5015838;28;20460;-79
2022/05/04 07:24:26;;;;;;;15.37;2.03;;;9.30;99.90;;;;;;5025288;28;20223;-79
2022/05/04 07:26:53;;;;;;;5.43;1.37;;;9.40;99.90;;;;;;4999059;28;20247;-80
2022/05/04 07:29:20;;;;;;;3.80;1.33;;;9.50;99.90;;;;;;5028918;28;20221;-79
2022/05/04 07:31:47;;;;;;;4.13;1.30;;;9.50;99.90;;;;;;5016367;28;20215;-80
2022/05/04 07:34:17;;;;;;;3.73;1.60;;;9.50;99.90;;;;;;5011692;28;20303;-79
2022/05/04 07:36:44;;;;;;;4.67;1.10;;;9.60;99.90;;;;;;5017051;28;20196;-80
2022/05/04 07:42:21;;;;;;;5.20;1.37;;;;;;;;;;5016459;28;20604;-80
2022/05/04 07:44:45;;;;;;;7.33;1.67;;;9.80;99.90;;;;;;5013929;28;20226;-80
2022/05/04 07:47:12;;;;;;;3.57;1.27;;;9.80;99.90;;;;;;5021813;28;20211;-79
2022/05/04 07:49:40;;;;;;;3.40;1.63;;;9.70;99.90;;;;;;5014519;28;20270;-81
2022/05/04 07:52:07;;;;;;;5.10;1.27;;;9.60;99.90;;;;;;5032935;28;20220;-79
2022/05/04 07:54:34;;;;;;;6.10;1.47;;;9.70;99.90;;;;;;5014253;28;20238;-81
2022/05/04 07:57:01;;;;;;;2.23;1.10;;;9.70;99.90;;;;;;5015341;28;20319;-79
2022/05/04 07:59:27;;;;;;;5.17;1.20;;;9.80;99.90;;;;;;5019873;28;20231;-80
2022/05/04 08:04:40;;;;;;;4.17;1.50;;;10.20;99.90;;;;;;5011214;28;20644;-80
2022/05/04 08:07:06;;;;;;;5.40;1.43;;;10.20;99.90;;;;;;5030957;28;20200;-79
2022/05/04 08:09:36;;;;;;;8.13;1.63;;;10.20;99.90;;;;;;5021253;28;20253;-80
2022/05/04 08:12:04;;;;;;;4.07;1.30;;;10.20;99.90;;;;;;5018156;28;20286;-80
2022/05/04 08:14:31;;;;;;;5.17;1.60;;;10.20;99.90;;;;;;5029486;28;20225;-81
2022/05/04 08:16:58;;;;;;;4.20;1.33;;;10.20;99.90;;;;;;5019651;28;20230;-79
2022/05/04 08:19:24;;;;;;;1.93;1.00;;;10.20;99.90;;;;;;5036679;28;20200;-79
2022/05/04 08:21:54;;;;;;;4.33;1.47;;;10.30;99.90;;;;;;5019444;28;20821;-78
2022/05/04 08:24:21;;;;;;;3.43;1.70;;;10.40;99.90;;;;;;5014443;28;20227;-79
2022/05/04 08:26:48;;;;;;;2.47;1.40;;;10.50;99.90;;;;;;5015794;28;20269;-80
2022/05/04 08:29:15;;;;;;;4.97;1.43;;;10.70;99.90;;;;;;5032215;28;20250;-79
2022/05/04 08:31:42;;;;;;;3.77;1.20;;;11.00;99.90;;;;;;5021911;28;20199;-80
2022/05/04 08:34:09;;;;;;;3.87;1.37;;;11.20;99.90;;;;;;5013175;28;20318;-78
2022/05/04 08:36:37;;;;;;;5.80;1.30;;;11.20;99.90;;;;;;5026363;28;20281;-80
2022/05/04 08:39:06;;;;;;;2.53;1.40;;;11.10;99.90;;;;;;5031976;28;20833;-79
2022/05/04 08:41:35;;;;;;;3.93;1.30;;;11.10;99.90;;;;;;5029587;28;20386;-79
2022/05/04 08:44:03;;;;;;;2.77;1.00;;;11.00;99.90;;;;;;5024870;28;20364;-79
2022/05/04 08:46:32;;;;;;;1.43;1.10;;;10.90;99.90;;;;;;5023881;28;20218;-79
2022/05/04 08:49:00;;;;;;;1.80;1.10;;;10.80;99.90;;;;;;5027377;28;20196;-78
2022/05/04 08:51:27;;;;;;;4.90;1.50;;;10.70;99.90;;;;;;5014409;28;20207;-78
2022/05/04 08:53:54;;;;;;;3.23;1.37;;;10.60;99.90;;;;;;5019666;28;20476;-79
2022/05/04 08:56:23;;;;;;;6.80;1.50;;;10.60;99.90;;;;;;5028080;28;20219;-79
2022/05/04 08:58:49;;;;;;;6.77;1.30;;;10.70;99.90;;;;;;5013881;28;20398;-79
2022/05/04 09:01:16;;;;;;;4.20;1.30;;;10.80;99.90;;;;;;5025592;28;20737;-79
2022/05/04 09:03:43;;;;;;;3.67;1.30;;;10.90;99.90;;;;;;5024246;28;20219;-79
2022/05/04 09:06:09;;;;;;;1.97;1.17;;;10.90;99.90;;;;;;5029130;28;20587;-79
2022/05/04 09:09:03;;;;;;;4.27;1.43;;;10.90;99.90;;;;;;5003914;28;20837;-81
2022/05/04 09:11:32;;;;;;;3.53;1.37;;;11.00;99.90;;;;;;5030520;28;20618;-79
2022/05/04 09:14:00;;;;;;;7.80;1.53;;;11.10;99.90;;;;;;4995402;28;20228;-79
2022/05/04 09:16:29;;;;;;;2.20;1.40;;;11.20;99.90;;;;;;5022792;28;20679;-79
2022/05/04 09:18:56;;;;;;;6.97;1.53;;;11.20;99.90;;;;;;5027000;28;20400;-79
2022/05/04 09:21:24;;;;;;;3.47;1.47;;;11.30;99.90;;;;;;5015428;28;20238;-79
2022/05/04 09:23:53;;;;;;;6.43;2.07;;;11.30;99.90;;;;;;5019525;28;20735;-79
2022/05/04 09:26:21;;;;;;;3.70;1.50;;;11.40;99.90;;;;;;5032402;28;20192;-79
2022/05/04 09:28:51;;;;;;;5.27;1.30;;;11.40;99.90;;;;;;5013291;28;20408;-80
2022/05/04 09:31:24;;;;;;;7.90;1.53;;;11.40;99.90;;;;;;5019024;28;20201;-78
2022/05/04 09:33:55;;;;;;;4.90;1.30;;;11.60;99.90;;;;;;5004124;28;20220;-79
2022/05/04 09:36:35;;;;;;;3.73;1.40;;;11.70;99.90;;;;;;5028111;28;20207;-79
2022/05/04 09:45:08;;;;;;;2.40;1.20;;;12.00;99.40;;;;;;5007317;28;20397;-79
2022/05/04 09:47:37;;;;;;;4.77;1.50;;;12.00;99.00;;;;;;5009259;28;20577;-80
2022/05/04 09:50:05;;;;;;;6.67;1.63;;;11.90;98.80;;;;;;5008843;28;20485;-79
2022/05/04 09:52:41;;;;;;;4.83;1.40;;;11.80;98.80;;;;;;5026506;28;20274;-80
2022/05/04 09:55:14;;;;;;;7.40;1.77;;;11.90;98.30;;;;;;5001336;28;20231;-79
2022/05/04 09:57:41;;;;;;;3.70;1.77;;;12.00;99.30;;;;;;5031448;28;20208;-80
2022/05/04 10:00:12;;;;;;;4.83;2.00;;;12.30;99.10;;;;;;5012501;28;20212;-79
2022/05/04 10:02:39;;;;;;;4.43;1.40;;;12.30;98.70;;;;;;5026127;28;20283;-79
2022/05/04 10:05:08;;;;;;;3.20;1.87;;;12.40;98.90;;;;;;5019487;28;20449;-79
2022/05/04 10:07:36;;;;;;;5.63;2.40;;;12.50;98.70;;;;;;5030812;28;20291;-80
2022/05/04 10:10:04;;;;;;;2.10;1.70;;;12.70;98.60;;;;;;4989616;28;20617;-79
2022/05/04 10:12:31;;;;;;;3.03;1.77;;;12.80;98.20;;;;;;5021226;28;20570;-79
2022/05/04 10:14:59;;;;;;;3.67;1.60;;;12.90;97.90;;;;;;5010186;28;20398;-79
2022/05/04 10:17:28;;;;;;;6.27;1.87;;;13.00;96.80;;;;;;5029020;28;20193;-79
2022/05/04 10:20:03;;;;;;;4.70;1.67;;;12.70;96.80;;;;;;4999739;28;20406;-79
2022/05/04 10:22:37;;;;;;;6.97;1.97;;;12.70;97.10;;;;;;5009757;28;20203;-79
2022/05/04 10:25:06;;;;;;;4.03;1.80;;;12.80;97.00;;;;;;5032411;28;20618;-79
2022/05/04 10:27:37;;;;;;;4.17;1.53;;;12.70;96.90;;;;;;5018372;28;20739;-80
2022/05/04 10:32:59;;;;;;;4.07;1.57;;;12.70;97.00;;;;;;4974562;28;20218;-78
2022/05/04 10:35:34;;;;;;;4.53;2.07;;;12.70;97.30;;;;;;5022385;28;20201;-80
2022/05/04 10:38:13;;;;;;;4.93;1.57;;;12.80;96.60;;;;;;5003548;28;20207;-78
2022/05/04 10:40:44;;;;;;;3.20;1.80;;;12.80;96.30;;;;;;5026271;28;20200;-79
2022/05/04 10:43:12;;;;;;;6.50;2.43;;;12.70;97.10;;;;;;5009751;28;20679;-78
2022/05/04 10:45:40;;;;;;;7.17;2.43;;;12.90;96.80;;;;;;5008502;28;20580;-80
2022/05/04 10:48:25;;;;;;;4.03;1.43;;;12.90;96.50;;;;;;5021542;28;20982;-79
2022/05/04 10:50:57;;;;;;;3.73;1.53;;;12.90;95.70;;;;;;5016566;28;20210;-78
2022/05/04 10:53:40;;;;;;;6.33;1.70;;;12.90;96.00;;;;;;5015187;28;20331;-78
2022/05/04 10:56:09;;;;;;;6.87;2.27;;;12.90;95.40;;;;;;5014204;28;20270;-82
2022/05/04 10:58:38;;;;;;;4.80;1.80;;;12.70;95.30;;;;;;5022340;28;20236;-80
2022/05/04 11:01:12;;;;;;;4.07;1.80;;;12.60;95.60;;;;;;4986208;28;20420;-81
2022/05/04 11:03:57;;;;;;;3.70;1.40;;;12.70;95.80;;;;;;5024667;28;20228;-81
2022/05/04 11:06:26;;;;;;;5.23;1.70;;;13.00;95.60;;;;;;5028026;28;20671;-80
2022/05/04 11:08:56;;;;;;;3.43;1.87;;;13.10;95.50;;;;;;4997037;28;20200;-80
2022/05/04 11:11:24;;;;;;;4.13;1.80;;;13.20;95.00;;;;;;5023633;28;20865;-79
2022/05/04 11:13:51;;;;;;;2.97;2.10;;;13.40;94.50;;;;;;4995813;28;20227;-80
2022/05/04 11:16:19;;;;;;;6.30;1.87;;;13.50;94.20;;;;;;4985908;28;24613;-80
2022/05/04 11:18:48;;;;;;;4.20;1.80;;;13.50;95.50;;;;;;5025092;28;20204;-83
2022/05/04 11:21:16;;;;;;;3.53;1.57;;;13.80;93.80;;;;;;5017160;28;20210;-81
2022/05/04 11:23:46;;;;;;;4.63;1.70;;;13.60;93.60;;;;;;5016490;28;20228;-81
2022/05/04 11:26:19;;;;;;;3.97;1.80;;;13.50;94.10;;;;;;5021789;28;20199;-81
2022/05/04 11:28:46;;;;;;;3.23;2.00;;;13.70;93.80;;;;;;5003609;28;20767;-82
2022/05/04 11:31:13;;;;;;;7.53;1.93;;;13.60;93.30;;;;;;4995570;28;20202;-82
2022/05/04 11:33:42;;;;;;;3.77;2.10;;;13.40;93.50;;;;;;5015549;28;20246;-82
2022/05/04 11:36:11;;;;;;;4.53;2.17;;;13.40;93.50;;;;;;5024252;28;20211;-82
2022/05/04 11:38:44;;;;;;;5.80;2.17;;;13.40;93.40;;;;;;5012854;28;20271;-82
2022/05/04 11:41:11;;;;;;;5.90;2.30;;;13.40;93.00;;;;;;5025940;28;20224;-81
2022/05/04 11:43:39;;;;;;;3.43;2.20;;;13.60;93.10;;;;;;4989190;28;20224;-81
2022/05/04 11:46:09;;;;;;;4.43;1.80;;;13.60;92.80;;;;;;5016388;28;20712;-81
2022/05/04 11:48:37;;;;;;;3.80;2.00;;;13.60;92.90;;;;;;5008854;28;20729;-81
2022/05/04 11:51:05;;;;;;;4.17;2.17;;;13.90;92.80;;;;;;5003734;28;20766;-81
2022/05/04 11:53:34;;;;;;;5.07;1.90;;;13.90;92.00;;;;;;4998861;28;20228;-82
2022/05/04 11:56:04;;;;;;;7.03;2.30;;;14.10;91.60;;;;;;5006326;28;20208;-81
2022/05/04 11:58:32;;;;;;;4.50;2.40;;;14.20;91.60;;;;;;5012707;28;20208;-82
2022/05/04 12:01:00;;;;;;;6.10;2.43;;;14.30;91.70;;;;;;5022861;28;20427;-81
2022/05/04 12:03:27;;;;;;;4.43;2.30;;;14.30;91.70;;;;;;5002518;28;20223;-81
2022/05/04 12:05:55;;;;;;;3.23;2.10;;;14.10;91.30;;;;;;5004217;28;20208;-81
2022/05/04 12:08:23;;;;;;;4.60;1.90;;;13.90;91.40;;;;;;5022208;28;20776;-81
2022/05/04 12:10:51;;;;;;;2.87;1.80;;;13.80;91.70;;;;;;5022189;28;20910;-81
2022/05/04 12:13:22;;;;;;;4.23;2.13;;;13.70;91.90;;;;;;5008363;28;20220;-82
2022/05/04 12:15:50;;;;;;;4.20;2.40;;;13.50;91.70;;;;;;5013563;28;20232;-81
2022/05/04 12:18:17;;;;;;;2.77;1.80;;;13.60;92.50;;;;;;5003933;28;20563;-81
2022/05/04 12:20:44;;;;;;;5.60;1.97;;;13.90;92.00;;;;;;5020031;28;20196;-81
2022/05/04 12:23:13;;;;;;;3.10;2.17;;;14.00;91.90;;;;;;5030482;28;20204;-80
2022/05/04 12:25:40;;;;;;;4.97;1.90;;;14.00;91.60;;;;;;5009541;28;20442;-81
2022/05/04 12:28:12;;;;;;;6.23;2.40;;;14.20;92.50;;;;;;5021818;28;20283;-81
2022/05/04 12:33:30;;;;;;;4.20;2.20;;;14.80;91.70;;;;;;5008599;28;20224;-81
2022/05/04 12:36:00;;;;;;;6.53;1.80;;;14.70;91.20;;;;;;5016814;28;20196;-81
2022/05/04 12:38:28;;;;;;;2.33;1.90;;;;;;;;;;5023430;28;20200;-82
2022/05/04 12:40:56;;;;;;;4.47;2.30;;;;;;;;;;5004286;28;20642;-81
2022/05/04 12:43:26;;;;;;;4.97;1.73;;;14.70;99.90;;;;;;5013827;28;20212;-82
2022/05/04 12:45:55;;;;;;;3.27;1.87;;;14.50;99.90;;;;;;5009144;28;20209;-81
2022/05/04 12:48:25;;;;;;;2.97;1.80;;;14.60;99.90;;;;;;5021294;28;20223;-81
2022/05/04 12:50:54;;;;;;;5.57;2.13;;;14.60;99.90;;;;;;5018980;28;20192;-81
2022/05/04 12:53:20;;;;;;;3.73;1.67;;;14.90;99.90;;;;;;4998813;28;20224;-81
2022/05/04 12:58:33;;;;;;;5.47;2.40;;;14.80;99.90;;;;;;5016608;28;20192;-81
2022/05/04 13:01:01;;;;;;;6.07;2.27;;;;;;;;;;5008004;28;20294;-81
2022/05/04 13:03:28;;;;;;;3.73;2.37;;;14.90;99.90;;;;;;4999291;28;20300;-81
2022/05/04 13:05:55;;;;;;;6.03;2.40;;;15.40;88.10;;;;;;4986932;28;20219;-81
2022/05/04 13:08:22;;;;;;;6.03;2.20;;;15.70;86.90;;;;;;5029988;28;20669;-81
2022/05/04 13:10:49;;;;;;;3.50;1.87;;;15.70;86.10;;;;;;5004668;28;20239;-81
2022/05/04 13:13:19;;;;;;;5.30;2.33;;;15.60;86.60;;;;;;5018787;28;20266;-82
2022/05/04 13:15:47;;;;;;;6.47;2.40;;;15.60;86.60;;;;;;5003538;28;20211;-82
2022/05/04 13:18:14;;;;;;;3.07;2.27;;;15.90;86.40;;;;;;5021300;28;20703;-82
2022/05/04 13:20:42;;;;;;;3.97;2.43;;;16.50;84.00;;;;;;5012200;28;20219;-82
2022/05/04 13:23:08;;;;;;;6.23;2.83;;;17.00;82.20;;;;;;5007874;28;20820;-81
2022/05/04 13:25:36;;;;;;;3.37;2.23;;;17.20;79.50;;;;;;5028655;28;20200;-81
2022/05/04 13:28:04;;;;;;;4.63;2.00;;;17.60;79.60;;;;;;5011207;28;20210;-80